sensor_id;sensor_type;location;lat;lon;timestamp;P1;durP1;ratioP1;P2;durP2;ratioP2
21181;SDS011;10749;46.296;7.524;2022-08-25T00:01:33;4.65;;;2.83;;
21181;SDS011;10749;46.296;7.524;2022-08-25T00:04:02;4.55;;;2.78;;
21181;SDS011;10749;46.296;7.524;2022-08-25T00:06:30;4.80;;;3.25;;
21181;SDS011;10749;46.296;7.524;2022-08-25T00:08:56;4.65;;;2.90;;
21181;SDS011;10749;46.296;7.524;2022-08-25T00:11:25;4.45;;;3.13;;
21181;SDS011;10749;46.296;7.524;2022-08-25T00:13:54;5.65;;;3.25;;
21181;SDS011;10749;46.296;7.524;2022-08-25T00:16:22;4.25;;;2.78;;
21181;SDS011;10749;46.296;7.524;2022-08-25T00:18:49;5.40;;;3.50;;
21181;SDS011;10749;46.296;7.524;2022-08-25T00:21:17;5.32;;;2.75;;
21181;SDS011;10749;46.296;7.524;2022-08-25T00:23:43;3.95;;;2.70;;
21181;SDS011;10749;46.296;7.524;2022-08-25T00:26:09;3.58;;;2.92;;
21181;SDS011;10749;46.296;7.524;2022-08-25T00:28:36;3.88;;;3.00;;
21181;SDS011;10749;46.296;7.524;2022-08-25T00:31:03;6.43;;;3.00;;
21181;SDS011;10749;46.296;7.524;2022-08-25T00:33:28;3.67;;;2.85;;
21181;SDS011;10749;46.296;7.524;2022-08-25T00:35:57;4.88;;;2.95;;
21181;SDS011;10749;46.296;7.524;2022-08-25T00:38:24;4.38;;;2.85;;
21181;SDS011;10749;46.296;7.524;2022-08-25T00:40:49;3.90;;;2.95;;
21181;SDS011;10749;46.296;7.524;2022-08-25T00:43:49;5.47;;;2.90;;
21181;SDS011;10749;46.296;7.524;2022-08-25T00:46:20;4.40;;;2.92;;
21181;SDS011;10749;46.296;7.524;2022-08-25T00:48:58;3.50;;;2.72;;
21181;SDS011;10749;46.296;7.524;2022-08-25T00:51:39;3.20;;;2.50;;
21181;SDS011;10749;46.296;7.524;2022-08-25T00:54:09;4.63;;;3.00;;
21181;SDS011;10749;46.296;7.524;2022-08-25T00:56:40;6.47;;;3.08;;
21181;SDS011;10749;46.296;7.524;2022-08-25T00:59:06;7.22;;;2.90;;
21181;SDS011;10749;46.296;7.524;2022-08-25T01:01:32;4.85;;;3.22;;
21181;SDS011;10749;46.296;7.524;2022-08-25T01:03:57;5.00;;;3.10;;
21181;SDS011;10749;46.296;7.524;2022-08-25T01:06:23;4.88;;;2.83;;
21181;SDS011;10749;46.296;7.524;2022-08-25T01:08:49;3.85;;;3.03;;
21181;SDS011;10749;46.296;7.524;2022-08-25T01:11:15;5.35;;;3.20;;
21181;SDS011;10749;46.296;7.524;2022-08-25T01:13:46;7.47;;;3.00;;
21181;SDS011;10749;46.296;7.524;2022-08-25T01:16:16;4.18;;;2.92;;
21181;SDS011;10749;46.296;7.524;2022-08-25T01:18:44;3.60;;;2.65;;
21181;SDS011;10749;46.296;7.524;2022-08-25T01:21:13;4.20;;;2.75;;
21181;SDS011;10749;46.296;7.524;2022-08-25T01:23:40;4.68;;;2.83;;
21181;SDS011;10749;46.296;7.524;2022-08-25T01:26:13;3.53;;;2.67;;
21181;SDS011;10749;46.296;7.524;2022-08-25T01:28:43;3.15;;;2.85;;
21181;SDS011;10749;46.296;7.524;2022-08-25T01:31:29;3.05;;;2.78;;
21181;SDS011;10749;46.296;7.524;2022-08-25T01:33:55;3.00;;;2.55;;
21181;SDS011;10749;46.296;7.524;2022-08-25T01:36:21;5.28;;;3.05;;
21181;SDS011;10749;46.296;7.524;2022-08-25T01:38:47;4.97;;;2.80;;
21181;SDS011;10749;46.296;7.524;2022-08-25T01:41:14;3.20;;;2.90;;
21181;SDS011;10749;46.296;7.524;2022-08-25T01:43:41;3.20;;;2.53;;
21181;SDS011;10749;46.296;7.524;2022-08-25T01:46:06;3.22;;;2.53;;
21181;SDS011;10749;46.296;7.524;2022-08-25T01:48:32;4.18;;;3.20;;
21181;SDS011;10749;46.296;7.524;2022-08-25T01:50:57;4.43;;;3.05;;
21181;SDS011;10749;46.296;7.524;2022-08-25T01:53:25;5.28;;;3.00;;
21181;SDS011;10749;46.296;7.524;2022-08-25T01:55:53;4.68;;;3.13;;
21181;SDS011;10749;46.296;7.524;2022-08-25T01:58:30;3.90;;;3.08;;
21181;SDS011;10749;46.296;7.524;2022-08-25T02:00:58;5.13;;;2.75;;
21181;SDS011;10749;46.296;7.524;2022-08-25T02:03:25;3.80;;;2.60;;
21181;SDS011;10749;46.296;7.524;2022-08-25T02:05:52;4.82;;;2.95;;
21181;SDS011;10749;46.296;7.524;2022-08-25T02:08:19;4.05;;;3.00;;
21181;SDS011;10749;46.296;7.524;2022-08-25T02:10:46;6.78;;;3.65;;
21181;SDS011;10749;46.296;7.524;2022-08-25T02:13:12;3.33;;;2.90;;
21181;SDS011;10749;46.296;7.524;2022-08-25T02:15:39;4.57;;;3.17;;
21181;SDS011;10749;46.296;7.524;2022-08-25T02:18:10;4.32;;;2.78;;
21181;SDS011;10749;46.296;7.524;2022-08-25T02:20:35;4.90;;;2.92;;
21181;SDS011;10749;46.296;7.524;2022-08-25T02:23:01;5.18;;;3.42;;
21181;SDS011;10749;46.296;7.524;2022-08-25T02:25:26;5.28;;;3.50;;
21181;SDS011;10749;46.296;7.524;2022-08-25T02:27:52;5.05;;;3.08;;
21181;SDS011;10749;46.296;7.524;2022-08-25T02:30:18;4.15;;;3.17;;
21181;SDS011;10749;46.296;7.524;2022-08-25T02:32:43;4.90;;;3.05;;
21181;SDS011;10749;46.296;7.524;2022-08-25T02:35:09;4.32;;;2.83;;
21181;SDS011;10749;46.296;7.524;2022-08-25T02:37:35;3.88;;;2.97;;
21181;SDS011;10749;46.296;7.524;2022-08-25T02:40:01;2.88;;;2.65;;
21181;SDS011;10749;46.296;7.524;2022-08-25T02:42:28;5.22;;;2.95;;
21181;SDS011;10749;46.296;7.524;2022-08-25T02:44:53;5.43;;;3.13;;
21181;SDS011;10749;46.296;7.524;2022-08-25T02:47:19;4.70;;;2.72;;
21181;SDS011;10749;46.296;7.524;2022-08-25T02:49:46;5.70;;;2.67;;
21181;SDS011;10749;46.296;7.524;2022-08-25T02:52:12;3.83;;;2.47;;
21181;SDS011;10749;46.296;7.524;2022-08-25T02:54:37;4.10;;;3.08;;
21181;SDS011;10749;46.296;7.524;2022-08-25T02:57:03;4.43;;;2.75;;
21181;SDS011;10749;46.296;7.524;2022-08-25T02:59:28;4.93;;;2.65;;
21181;SDS011;10749;46.296;7.524;2022-08-25T03:01:54;5.68;;;2.78;;
21181;SDS011;10749;46.296;7.524;2022-08-25T03:04:19;4.97;;;2.88;;
21181;SDS011;10749;46.296;7.524;2022-08-25T03:06:44;3.30;;;3.00;;
21181;SDS011;10749;46.296;7.524;2022-08-25T03:09:10;4.03;;;3.17;;
21181;SDS011;10749;46.296;7.524;2022-08-25T03:11:36;3.78;;;2.90;;
21181;SDS011;10749;46.296;7.524;2022-08-25T03:14:02;3.83;;;2.80;;
21181;SDS011;10749;46.296;7.524;2022-08-25T03:16:29;5.07;;;2.92;;
21181;SDS011;10749;46.296;7.524;2022-08-25T03:18:56;3.45;;;2.80;;
21181;SDS011;10749;46.296;7.524;2022-08-25T03:21:21;3.53;;;2.72;;
21181;SDS011;10749;46.296;7.524;2022-08-25T03:23:47;4.57;;;2.75;;
21181;SDS011;10749;46.296;7.524;2022-08-25T03:26:12;4.40;;;3.05;;
21181;SDS011;10749;46.296;7.524;2022-08-25T03:28:56;3.00;;;2.78;;
21181;SDS011;10749;46.296;7.524;2022-08-25T03:31:22;3.70;;;2.63;;
21181;SDS011;10749;46.296;7.524;2022-08-25T03:33:50;5.28;;;3.30;;
21181;SDS011;10749;46.296;7.524;2022-08-25T03:36:16;5.38;;;3.05;;
21181;SDS011;10749;46.296;7.524;2022-08-25T03:38:41;4.25;;;2.83;;
21181;SDS011;10749;46.296;7.524;2022-08-25T03:41:14;4.50;;;3.00;;
21181;SDS011;10749;46.296;7.524;2022-08-25T03:43:41;4.03;;;2.90;;
21181;SDS011;10749;46.296;7.524;2022-08-25T03:46:07;5.95;;;2.97;;
21181;SDS011;10749;46.296;7.524;2022-08-25T03:48:33;3.28;;;2.97;;
21181;SDS011;10749;46.296;7.524;2022-08-25T03:50:59;4.68;;;2.70;;
21181;SDS011;10749;46.296;7.524;2022-08-25T03:53:24;4.13;;;3.00;;
21181;SDS011;10749;46.296;7.524;2022-08-25T03:55:49;3.45;;;2.75;;
21181;SDS011;10749;46.296;7.524;2022-08-25T03:58:15;4.15;;;2.70;;
21181;SDS011;10749;46.296;7.524;2022-08-25T04:00:42;4.00;;;3.10;;
21181;SDS011;10749;46.296;7.524;2022-08-25T04:03:07;4.45;;;3.15;;
21181;SDS011;10749;46.296;7.524;2022-08-25T04:05:33;3.33;;;2.70;;
21181;SDS011;10749;46.296;7.524;2022-08-25T04:07:59;4.05;;;2.97;;
21181;SDS011;10749;46.296;7.524;2022-08-25T04:10:25;6.20;;;3.30;;
21181;SDS011;10749;46.296;7.524;2022-08-25T04:12:50;4.07;;;3.20;;
21181;SDS011;10749;46.296;7.524;2022-08-25T04:15:16;4.63;;;3.15;;
21181;SDS011;10749;46.296;7.524;2022-08-25T04:17:42;4.82;;;2.92;;
21181;SDS011;10749;46.296;7.524;2022-08-25T04:20:08;3.95;;;3.22;;
21181;SDS011;10749;46.296;7.524;2022-08-25T04:22:35;6.85;;;3.38;;
21181;SDS011;10749;46.296;7.524;2022-08-25T04:25:02;7.50;;;3.60;;
21181;SDS011;10749;46.296;7.524;2022-08-25T04:27:28;4.78;;;3.22;;
21181;SDS011;10749;46.296;7.524;2022-08-25T04:29:53;4.20;;;3.30;;
21181;SDS011;10749;46.296;7.524;2022-08-25T04:32:18;4.53;;;3.10;;
21181;SDS011;10749;46.296;7.524;2022-08-25T04:34:44;3.47;;;2.83;;
21181;SDS011;10749;46.296;7.524;2022-08-25T04:37:09;5.55;;;3.28;;
21181;SDS011;10749;46.296;7.524;2022-08-25T04:39:35;4.45;;;3.47;;
21181;SDS011;10749;46.296;7.524;2022-08-25T04:42:00;3.72;;;3.13;;
21181;SDS011;10749;46.296;7.524;2022-08-25T04:44:26;3.35;;;2.92;;
21181;SDS011;10749;46.296;7.524;2022-08-25T04:46:51;3.88;;;3.38;;
21181;SDS011;10749;46.296;7.524;2022-08-25T04:49:17;6.00;;;3.00;;
21181;SDS011;10749;46.296;7.524;2022-08-25T04:51:43;3.85;;;3.35;;
21181;SDS011;10749;46.296;7.524;2022-08-25T04:54:10;6.20;;;3.40;;
21181;SDS011;10749;46.296;7.524;2022-08-25T04:56:38;7.28;;;3.70;;
21181;SDS011;10749;46.296;7.524;2022-08-25T04:59:06;5.60;;;3.20;;
21181;SDS011;10749;46.296;7.524;2022-08-25T05:01:33;4.90;;;3.38;;
21181;SDS011;10749;46.296;7.524;2022-08-25T05:04:00;3.65;;;3.35;;
21181;SDS011;10749;46.296;7.524;2022-08-25T05:06:27;5.53;;;3.53;;
21181;SDS011;10749;46.296;7.524;2022-08-25T05:08:54;6.35;;;3.45;;
21181;SDS011;10749;46.296;7.524;2022-08-25T05:11:21;7.18;;;3.60;;
21181;SDS011;10749;46.296;7.524;2022-08-25T05:13:48;4.32;;;3.40;;
21181;SDS011;10749;46.296;7.524;2022-08-25T05:16:15;7.35;;;3.90;;
21181;SDS011;10749;46.296;7.524;2022-08-25T05:18:41;7.20;;;3.53;;
21181;SDS011;10749;46.296;7.524;2022-08-25T05:21:12;4.22;;;3.58;;
21181;SDS011;10749;46.296;7.524;2022-08-25T05:23:39;5.47;;;3.60;;
21181;SDS011;10749;46.296;7.524;2022-08-25T05:26:15;7.50;;;3.58;;
21181;SDS011;10749;46.296;7.524;2022-08-25T05:28:44;5.40;;;3.47;;
21181;SDS011;10749;46.296;7.524;2022-08-25T05:31:11;6.88;;;3.45;;
21181;SDS011;10749;46.296;7.524;2022-08-25T05:33:38;4.30;;;3.30;;
21181;SDS011;10749;46.296;7.524;2022-08-25T05:36:06;5.40;;;3.60;;
21181;SDS011;10749;46.296;7.524;2022-08-25T05:38:32;4.90;;;3.65;;
21181;SDS011;10749;46.296;7.524;2022-08-25T05:41:02;6.68;;;3.45;;
21181;SDS011;10749;46.296;7.524;2022-08-25T05:43:30;6.75;;;3.88;;
21181;SDS011;10749;46.296;7.524;2022-08-25T05:45:56;4.68;;;3.60;;
21181;SDS011;10749;46.296;7.524;2022-08-25T05:48:22;5.20;;;4.20;;
21181;SDS011;10749;46.296;7.524;2022-08-25T05:50:53;6.18;;;3.65;;
21181;SDS011;10749;46.296;7.524;2022-08-25T05:53:20;5.30;;;3.38;;
21181;SDS011;10749;46.296;7.524;2022-08-25T05:55:46;4.90;;;3.10;;
21181;SDS011;10749;46.296;7.524;2022-08-25T05:58:12;6.00;;;3.85;;
21181;SDS011;10749;46.296;7.524;2022-08-25T06:00:38;8.73;;;3.75;;
21181;SDS011;10749;46.296;7.524;2022-08-25T06:03:03;4.85;;;3.70;;
21181;SDS011;10749;46.296;7.524;2022-08-25T06:05:29;6.60;;;3.55;;
21181;SDS011;10749;46.296;7.524;2022-08-25T06:07:56;5.95;;;3.83;;
21181;SDS011;10749;46.296;7.524;2022-08-25T06:10:21;5.13;;;3.58;;
21181;SDS011;10749;46.296;7.524;2022-08-25T06:12:47;6.68;;;3.63;;
21181;SDS011;10749;46.296;7.524;2022-08-25T06:15:13;7.28;;;3.65;;
21181;SDS011;10749;46.296;7.524;2022-08-25T06:17:41;6.30;;;3.60;;
21181;SDS011;10749;46.296;7.524;2022-08-25T06:20:08;6.00;;;3.63;;
21181;SDS011;10749;46.296;7.524;2022-08-25T06:22:35;4.95;;;3.40;;
21181;SDS011;10749;46.296;7.524;2022-08-25T06:25:02;6.22;;;3.30;;
21181;SDS011;10749;46.296;7.524;2022-08-25T06:27:28;5.03;;;3.42;;
21181;SDS011;10749;46.296;7.524;2022-08-25T06:29:53;6.03;;;3.28;;
21181;SDS011;10749;46.296;7.524;2022-08-25T06:32:19;5.97;;;3.47;;
21181;SDS011;10749;46.296;7.524;2022-08-25T06:34:44;6.38;;;3.65;;
21181;SDS011;10749;46.296;7.524;2022-08-25T06:37:10;6.63;;;3.63;;
21181;SDS011;10749;46.296;7.524;2022-08-25T06:39:35;4.85;;;3.55;;
21181;SDS011;10749;46.296;7.524;2022-08-25T06:42:00;6.38;;;3.38;;
21181;SDS011;10749;46.296;7.524;2022-08-25T06:44:26;3.75;;;2.97;;
21181;SDS011;10749;46.296;7.524;2022-08-25T06:46:54;3.25;;;2.70;;
21181;SDS011;10749;46.296;7.524;2022-08-25T06:49:19;4.53;;;3.00;;
21181;SDS011;10749;46.296;7.524;2022-08-25T06:51:45;5.43;;;3.10;;
21181;SDS011;10749;46.296;7.524;2022-08-25T06:54:11;3.50;;;2.70;;
21181;SDS011;10749;46.296;7.524;2022-08-25T06:56:38;4.97;;;2.83;;
21181;SDS011;10749;46.296;7.524;2022-08-25T06:59:04;4.68;;;2.83;;
21181;SDS011;10749;46.296;7.524;2022-08-25T07:01:31;4.95;;;3.10;;
21181;SDS011;10749;46.296;7.524;2022-08-25T07:03:57;5.28;;;3.05;;
21181;SDS011;10749;46.296;7.524;2022-08-25T07:06:25;4.72;;;2.80;;
21181;SDS011;10749;46.296;7.524;2022-08-25T07:08:52;4.75;;;2.90;;
21181;SDS011;10749;46.296;7.524;2022-08-25T07:11:18;4.13;;;2.80;;
21181;SDS011;10749;46.296;7.524;2022-08-25T07:13:45;4.28;;;2.92;;
21181;SDS011;10749;46.296;7.524;2022-08-25T07:16:11;3.03;;;2.60;;
21181;SDS011;10749;46.296;7.524;2022-08-25T07:18:39;4.45;;;3.13;;
21181;SDS011;10749;46.296;7.524;2022-08-25T07:21:05;4.80;;;2.80;;
21181;SDS011;10749;46.296;7.524;2022-08-25T07:23:30;5.50;;;3.35;;
21181;SDS011;10749;46.296;7.524;2022-08-25T07:25:56;4.43;;;3.10;;
21181;SDS011;10749;46.296;7.524;2022-08-25T07:28:42;6.10;;;2.90;;
21181;SDS011;10749;46.296;7.524;2022-08-25T07:31:07;3.90;;;3.20;;
21181;SDS011;10749;46.296;7.524;2022-08-25T07:33:33;7.82;;;2.92;;
21181;SDS011;10749;46.296;7.524;2022-08-25T07:35:58;4.45;;;2.92;;
21181;SDS011;10749;46.296;7.524;2022-08-25T07:38:24;7.20;;;3.10;;
21181;SDS011;10749;46.296;7.524;2022-08-25T07:40:49;5.57;;;3.03;;
21181;SDS011;10749;46.296;7.524;2022-08-25T07:43:18;4.97;;;3.10;;
21181;SDS011;10749;46.296;7.524;2022-08-25T07:45:47;9.63;;;3.85;;
21181;SDS011;10749;46.296;7.524;2022-08-25T07:48:12;7.18;;;4.55;;
21181;SDS011;10749;46.296;7.524;2022-08-25T07:50:40;10.18;;;4.45;;
21181;SDS011;10749;46.296;7.524;2022-08-25T07:53:09;5.57;;;4.20;;
21181;SDS011;10749;46.296;7.524;2022-08-25T07:55:35;6.78;;;3.45;;
21181;SDS011;10749;46.296;7.524;2022-08-25T07:58:01;6.65;;;3.28;;
21181;SDS011;10749;46.296;7.524;2022-08-25T08:00:28;5.32;;;3.42;;
21181;SDS011;10749;46.296;7.524;2022-08-25T08:02:56;4.95;;;3.25;;
21181;SDS011;10749;46.296;7.524;2022-08-25T08:05:23;6.20;;;2.90;;
21181;SDS011;10749;46.296;7.524;2022-08-25T08:07:50;4.45;;;3.08;;
21181;SDS011;10749;46.296;7.524;2022-08-25T08:10:16;7.05;;;3.40;;
21181;SDS011;10749;46.296;7.524;2022-08-25T08:12:42;7.15;;;3.38;;
21181;SDS011;10749;46.296;7.524;2022-08-25T08:15:08;6.38;;;3.35;;
21181;SDS011;10749;46.296;7.524;2022-08-25T08:17:33;7.53;;;3.22;;
21181;SDS011;10749;46.296;7.524;2022-08-25T08:19:59;5.57;;;3.25;;
21181;SDS011;10749;46.296;7.524;2022-08-25T08:22:25;3.65;;;3.20;;
21181;SDS011;10749;46.296;7.524;2022-08-25T08:24:53;4.25;;;3.08;;
21181;SDS011;10749;46.296;7.524;2022-08-25T08:27:19;5.60;;;3.00;;
21181;SDS011;10749;46.296;7.524;2022-08-25T08:29:45;5.45;;;3.08;;
21181;SDS011;10749;46.296;7.524;2022-08-25T08:32:10;4.40;;;2.88;;
21181;SDS011;10749;46.296;7.524;2022-08-25T08:34:39;4.60;;;3.10;;
21181;SDS011;10749;46.296;7.524;2022-08-25T08:37:05;5.35;;;3.20;;
21181;SDS011;10749;46.296;7.524;2022-08-25T08:39:31;7.15;;;3.28;;
21181;SDS011;10749;46.296;7.524;2022-08-25T08:50:55;4.72;;;2.95;;
21181;SDS011;10749;46.296;7.524;2022-08-25T08:56:19;5.63;;;3.20;;
21181;SDS011;10749;46.296;7.524;2022-08-25T08:58:57;4.30;;;2.60;;
21181;SDS011;10749;46.296;7.524;2022-08-25T09:01:30;3.33;;;3.03;;
21181;SDS011;10749;46.296;7.524;2022-08-25T09:04:02;3.65;;;2.67;;
21181;SDS011;10749;46.296;7.524;2022-08-25T09:06:44;5.88;;;2.88;;
21181;SDS011;10749;46.296;7.524;2022-08-25T09:09:13;3.08;;;2.75;;
21181;SDS011;10749;46.296;7.524;2022-08-25T09:11:53;6.60;;;3.33;;
21181;SDS011;10749;46.296;7.524;2022-08-25T09:20:04;5.13;;;2.92;;
21181;SDS011;10749;46.296;7.524;2022-08-25T09:22:58;3.33;;;2.95;;
21181;SDS011;10749;46.296;7.524;2022-08-25T09:33:32;4.85;;;3.10;;
21181;SDS011;10749;46.296;7.524;2022-08-25T09:35:58;5.32;;;3.38;;
21181;SDS011;10749;46.296;7.524;2022-08-25T09:38:24;6.10;;;3.30;;
21181;SDS011;10749;46.296;7.524;2022-08-25T09:40:54;4.38;;;3.30;;
21181;SDS011;10749;46.296;7.524;2022-08-25T09:48:23;7.15;;;3.30;;
21181;SDS011;10749;46.296;7.524;2022-08-25T09:50:58;5.00;;;2.88;;
21181;SDS011;10749;46.296;7.524;2022-08-25T09:53:26;5.60;;;3.17;;
21181;SDS011;10749;46.296;7.524;2022-08-25T09:56:03;4.03;;;2.60;;
21181;SDS011;10749;46.296;7.524;2022-08-25T09:58:31;3.92;;;2.47;;
21181;SDS011;10749;46.296;7.524;2022-08-25T10:01:10;3.67;;;2.45;;
21181;SDS011;10749;46.296;7.524;2022-08-25T10:06:34;4.07;;;2.35;;
21181;SDS011;10749;46.296;7.524;2022-08-25T10:09:07;3.03;;;2.30;;
21181;SDS011;10749;46.296;7.524;2022-08-25T10:11:34;6.03;;;2.35;;
21181;SDS011;10749;46.296;7.524;2022-08-25T10:16:38;4.13;;;2.72;;
21181;SDS011;10749;46.296;7.524;2022-08-25T10:19:06;3.92;;;2.67;;
21181;SDS011;10749;46.296;7.524;2022-08-25T10:21:34;4.43;;;2.33;;
21181;SDS011;10749;46.296;7.524;2022-08-25T10:24:01;5.50;;;2.53;;
21181;SDS011;10749;46.296;7.524;2022-08-25T10:29:40;3.25;;;2.80;;
21181;SDS011;10749;46.296;7.524;2022-08-25T10:35:23;3.72;;;2.45;;
21181;SDS011;10749;46.296;7.524;2022-08-25T10:37:54;4.05;;;2.38;;
21181;SDS011;10749;46.296;7.524;2022-08-25T10:40:33;4.03;;;2.58;;
21181;SDS011;10749;46.296;7.524;2022-08-25T10:43:17;2.78;;;2.58;;
21181;SDS011;10749;46.296;7.524;2022-08-25T10:51:31;4.38;;;2.65;;
21181;SDS011;10749;46.296;7.524;2022-08-25T11:00:13;3.30;;;2.95;;
21181;SDS011;10749;46.296;7.524;2022-08-25T11:05:44;3.25;;;2.42;;
21181;SDS011;10749;46.296;7.524;2022-08-25T11:08:19;3.85;;;2.90;;
21181;SDS011;10749;46.296;7.524;2022-08-25T11:10:57;4.75;;;2.50;;
21181;SDS011;10749;46.296;7.524;2022-08-25T11:16:12;3.58;;;2.70;;
21181;SDS011;10749;46.296;7.524;2022-08-25T11:18:45;4.47;;;2.78;;
21181;SDS011;10749;46.296;7.524;2022-08-25T11:21:19;3.90;;;2.63;;
21181;SDS011;10749;46.296;7.524;2022-08-25T11:24:06;4.30;;;2.70;;
21181;SDS011;10749;46.296;7.524;2022-08-25T11:26:48;3.17;;;2.50;;
21181;SDS011;10749;46.296;7.524;2022-08-25T11:29:19;3.92;;;2.63;;
21181;SDS011;10749;46.296;7.524;2022-08-25T11:31:49;5.82;;;2.30;;
21181;SDS011;10749;46.296;7.524;2022-08-25T11:34:16;5.40;;;2.42;;
21181;SDS011;10749;46.296;7.524;2022-08-25T11:36:48;4.25;;;2.83;;
21181;SDS011;10749;46.296;7.524;2022-08-25T11:42:07;4.15;;;2.83;;
21181;SDS011;10749;46.296;7.524;2022-08-25T11:44:53;4.38;;;2.80;;
21181;SDS011;10749;46.296;7.524;2022-08-25T11:47:38;6.15;;;3.50;;
21181;SDS011;10749;46.296;7.524;2022-08-25T11:50:31;3.40;;;3.10;;
21181;SDS011;10749;46.296;7.524;2022-08-25T11:53:14;5.68;;;3.15;;
21181;SDS011;10749;46.296;7.524;2022-08-25T11:55:45;4.13;;;3.15;;
21181;SDS011;10749;46.296;7.524;2022-08-25T12:01:58;3.15;;;2.85;;
21181;SDS011;10749;46.296;7.524;2022-08-25T12:09:30;3.80;;;2.30;;
21181;SDS011;10749;46.296;7.524;2022-08-25T12:12:28;3.45;;;1.90;;
21181;SDS011;10749;46.296;7.524;2022-08-25T12:17:42;5.55;;;2.47;;
21181;SDS011;10749;46.296;7.524;2022-08-25T12:20:08;3.75;;;2.20;;
21181;SDS011;10749;46.296;7.524;2022-08-25T12:25:02;3.35;;;1.95;;
21181;SDS011;10749;46.296;7.524;2022-08-25T12:27:37;2.55;;;2.33;;
21181;SDS011;10749;46.296;7.524;2022-08-25T12:35:38;3.50;;;1.85;;
21181;SDS011;10749;46.296;7.524;2022-08-25T12:40:56;2.35;;;1.88;;
21181;SDS011;10749;46.296;7.524;2022-08-25T12:43:33;2.80;;;1.50;;
21181;SDS011;10749;46.296;7.524;2022-08-25T12:51:48;3.30;;;1.52;;
21181;SDS011;10749;46.296;7.524;2022-08-25T12:54:23;2.75;;;1.55;;
21181;SDS011;10749;46.296;7.524;2022-08-25T12:57:02;3.80;;;2.15;;
21181;SDS011;10749;46.296;7.524;2022-08-25T12:59:42;2.40;;;1.70;;
21181;SDS011;10749;46.296;7.524;2022-08-25T13:08:21;4.65;;;1.60;;
21181;SDS011;10749;46.296;7.524;2022-08-25T13:10:59;2.78;;;1.50;;
21181;SDS011;10749;46.296;7.524;2022-08-25T13:16:17;3.80;;;1.80;;
21181;SDS011;10749;46.296;7.524;2022-08-25T13:18:47;3.17;;;1.48;;
21181;SDS011;10749;46.296;7.524;2022-08-25T13:23:55;1.60;;;1.30;;
21181;SDS011;10749;46.296;7.524;2022-08-25T13:26:33;1.60;;;1.50;;
21181;SDS011;10749;46.296;7.524;2022-08-25T13:31:31;3.15;;;1.70;;
21181;SDS011;10749;46.296;7.524;2022-08-25T13:36:26;4.18;;;1.90;;
21181;SDS011;10749;46.296;7.524;2022-08-25T13:39:14;3.28;;;1.60;;
21181;SDS011;10749;46.296;7.524;2022-08-25T13:41:43;2.67;;;1.50;;
21181;SDS011;10749;46.296;7.524;2022-08-25T13:44:14;2.75;;;1.52;;
21181;SDS011;10749;46.296;7.524;2022-08-25T13:46:41;3.00;;;1.40;;
21181;SDS011;10749;46.296;7.524;2022-08-25T13:49:07;2.08;;;1.35;;
21181;SDS011;10749;46.296;7.524;2022-08-25T13:51:33;1.88;;;1.63;;
21181;SDS011;10749;46.296;7.524;2022-08-25T13:54:00;1.60;;;1.50;;
21181;SDS011;10749;46.296;7.524;2022-08-25T13:56:36;5.43;;;1.65;;
21181;SDS011;10749;46.296;7.524;2022-08-25T13:59:05;3.20;;;1.60;;
21181;SDS011;10749;46.296;7.524;2022-08-25T14:01:45;2.38;;;1.48;;
21181;SDS011;10749;46.296;7.524;2022-08-25T14:07:06;1.73;;;1.33;;
21181;SDS011;10749;46.296;7.524;2022-08-25T14:09:47;2.15;;;1.35;;
21181;SDS011;10749;46.296;7.524;2022-08-25T14:12:25;2.55;;;1.40;;
21181;SDS011;10749;46.296;7.524;2022-08-25T14:14:57;1.60;;;1.30;;
21181;SDS011;10749;46.296;7.524;2022-08-25T14:17:26;1.58;;;1.20;;
21181;SDS011;10749;46.296;7.524;2022-08-25T14:19:51;4.70;;;1.58;;
21181;SDS011;10749;46.296;7.524;2022-08-25T14:22:16;1.67;;;1.50;;
21181;SDS011;10749;46.296;7.524;2022-08-25T14:24:42;3.15;;;1.50;;
21181;SDS011;10749;46.296;7.524;2022-08-25T14:27:07;2.03;;;1.52;;
21181;SDS011;10749;46.296;7.524;2022-08-25T14:29:33;2.58;;;1.50;;
21181;SDS011;10749;46.296;7.524;2022-08-25T14:31:58;2.90;;;1.40;;
21181;SDS011;10749;46.296;7.524;2022-08-25T14:34:25;1.95;;;1.35;;
21181;SDS011;10749;46.296;7.524;2022-08-25T14:36:53;2.60;;;1.60;;
21181;SDS011;10749;46.296;7.524;2022-08-25T14:39:19;2.42;;;1.40;;
21181;SDS011;10749;46.296;7.524;2022-08-25T14:41:45;2.22;;;1.40;;
21181;SDS011;10749;46.296;7.524;2022-08-25T14:44:11;1.40;;;1.20;;
21181;SDS011;10749;46.296;7.524;2022-08-25T14:46:58;2.05;;;1.40;;
21181;SDS011;10749;46.296;7.524;2022-08-25T14:49:26;1.52;;;1.42;;
21181;SDS011;10749;46.296;7.524;2022-08-25T14:51:57;1.83;;;1.58;;
21181;SDS011;10749;46.296;7.524;2022-08-25T14:54:28;2.88;;;1.58;;
21181;SDS011;10749;46.296;7.524;2022-08-25T14:56:54;2.13;;;1.48;;
21181;SDS011;10749;46.296;7.524;2022-08-25T14:59:21;5.15;;;1.38;;
21181;SDS011;10749;46.296;7.524;2022-08-25T15:01:46;1.98;;;1.30;;
21181;SDS011;10749;46.296;7.524;2022-08-25T15:04:13;4.68;;;1.50;;
21181;SDS011;10749;46.296;7.524;2022-08-25T15:06:41;3.40;;;1.50;;
21181;SDS011;10749;46.296;7.524;2022-08-25T15:09:08;3.88;;;1.58;;
21181;SDS011;10749;46.296;7.524;2022-08-25T15:11:45;2.08;;;1.30;;
21181;SDS011;10749;46.296;7.524;2022-08-25T15:14:16;5.70;;;1.50;;
21181;SDS011;10749;46.296;7.524;2022-08-25T15:16:52;5.60;;;1.38;;
21181;SDS011;10749;46.296;7.524;2022-08-25T15:19:21;2.13;;;1.33;;
21181;SDS011;10749;46.296;7.524;2022-08-25T15:21:48;1.73;;;1.20;;
21181;SDS011;10749;46.296;7.524;2022-08-25T15:24:15;1.90;;;1.48;;
21181;SDS011;10749;46.296;7.524;2022-08-25T15:26:52;4.20;;;1.60;;
21181;SDS011;10749;46.296;7.524;2022-08-25T15:29:20;2.28;;;1.55;;
21181;SDS011;10749;46.296;7.524;2022-08-25T15:31:47;2.28;;;1.30;;
21181;SDS011;10749;46.296;7.524;2022-08-25T15:34:13;1.95;;;1.30;;
21181;SDS011;10749;46.296;7.524;2022-08-25T15:36:38;1.50;;;1.40;;
21181;SDS011;10749;46.296;7.524;2022-08-25T15:39:05;2.17;;;1.40;;
21181;SDS011;10749;46.296;7.524;2022-08-25T15:41:30;2.05;;;1.42;;
21181;SDS011;10749;46.296;7.524;2022-08-25T15:43:56;1.60;;;1.50;;
21181;SDS011;10749;46.296;7.524;2022-08-25T15:46:23;1.63;;;1.30;;
21181;SDS011;10749;46.296;7.524;2022-08-25T15:48:52;2.13;;;1.50;;
21181;SDS011;10749;46.296;7.524;2022-08-25T15:51:18;2.45;;;1.67;;
21181;SDS011;10749;46.296;7.524;2022-08-25T15:53:44;2.85;;;1.50;;
21181;SDS011;10749;46.296;7.524;2022-08-25T15:56:10;1.40;;;1.30;;
21181;SDS011;10749;46.296;7.524;2022-08-25T15:58:42;2.92;;;1.50;;
21181;SDS011;10749;46.296;7.524;2022-08-25T16:01:11;2.95;;;1.52;;
21181;SDS011;10749;46.296;7.524;2022-08-25T16:03:38;5.00;;;1.67;;
21181;SDS011;10749;46.296;7.524;2022-08-25T16:06:03;2.78;;;1.60;;
21181;SDS011;10749;46.296;7.524;2022-08-25T16:08:29;2.55;;;1.50;;
21181;SDS011;10749;46.296;7.524;2022-08-25T16:10:54;2.38;;;1.50;;
21181;SDS011;10749;46.296;7.524;2022-08-25T16:13:19;3.55;;;1.60;;
21181;SDS011;10749;46.296;7.524;2022-08-25T16:15:47;3.50;;;2.10;;
21181;SDS011;10749;46.296;7.524;2022-08-25T16:18:13;3.65;;;1.75;;
21181;SDS011;10749;46.296;7.524;2022-08-25T16:20:38;2.47;;;1.42;;
21181;SDS011;10749;46.296;7.524;2022-08-25T16:23:08;7.47;;;1.92;;
21181;SDS011;10749;46.296;7.524;2022-08-25T16:25:37;2.55;;;1.83;;
21181;SDS011;10749;46.296;7.524;2022-08-25T16:28:03;1.95;;;1.80;;
21181;SDS011;10749;46.296;7.524;2022-08-25T16:30:28;3.03;;;1.75;;
21181;SDS011;10749;46.296;7.524;2022-08-25T16:32:53;3.15;;;1.90;;
21181;SDS011;10749;46.296;7.524;2022-08-25T16:35:19;4.53;;;1.85;;
21181;SDS011;10749;46.296;7.524;2022-08-25T16:37:44;2.17;;;1.80;;
21181;SDS011;10749;46.296;7.524;2022-08-25T16:40:09;2.50;;;1.63;;
21181;SDS011;10749;46.296;7.524;2022-08-25T16:42:37;3.42;;;1.67;;
21181;SDS011;10749;46.296;7.524;2022-08-25T16:45:03;2.28;;;1.70;;
21181;SDS011;10749;46.296;7.524;2022-08-25T16:47:29;2.85;;;1.67;;